sensor_id;sensor_type;location;lat;lon;timestamp;P1;durP1;ratioP1;P2;durP2;ratioP2
11653;SDS011;5883;48.818;9.114;2022-07-29T00:00:18;3.95;;;3.22;;
11653;SDS011;5883;48.818;9.114;2022-07-29T00:02:45;4.28;;;3.42;;
11653;SDS011;5883;48.818;9.114;2022-07-29T00:05:12;3.65;;;3.22;;
11653;SDS011;5883;48.818;9.114;2022-07-29T00:07:39;5.30;;;3.60;;
11653;SDS011;5883;48.818;9.114;2022-07-29T00:10:06;3.53;;;3.20;;
11653;SDS011;5883;48.818;9.114;2022-07-29T00:12:33;4.22;;;3.17;;
11653;SDS011;5883;48.818;9.114;2022-07-29T00:14:59;3.65;;;2.67;;
11653;SDS011;5883;48.818;9.114;2022-07-29T00:17:26;5.15;;;3.42;;
11653;SDS011;5883;48.818;9.114;2022-07-29T00:19:52;5.05;;;3.00;;
11653;SDS011;5883;48.818;9.114;2022-07-29T00:22:20;4.95;;;3.00;;
11653;SDS011;5883;48.818;9.114;2022-07-29T00:24:47;3.80;;;3.28;;
11653;SDS011;5883;48.818;9.114;2022-07-29T00:27:14;3.55;;;2.90;;
11653;SDS011;5883;48.818;9.114;2022-07-29T00:29:40;5.25;;;3.38;;
11653;SDS011;5883;48.818;9.114;2022-07-29T00:32:07;3.58;;;3.28;;
11653;SDS011;5883;48.818;9.114;2022-07-29T00:34:33;3.95;;;3.25;;
11653;SDS011;5883;48.818;9.114;2022-07-29T00:37:17;3.40;;;2.75;;
11653;SDS011;5883;48.818;9.114;2022-07-29T00:39:45;5.03;;;3.30;;
11653;SDS011;5883;48.818;9.114;2022-07-29T00:42:12;6.03;;;3.38;;
11653;SDS011;5883;48.818;9.114;2022-07-29T00:44:38;5.00;;;3.33;;
11653;SDS011;5883;48.818;9.114;2022-07-29T00:47:05;3.47;;;3.17;;
11653;SDS011;5883;48.818;9.114;2022-07-29T00:49:32;3.10;;;2.90;;
11653;SDS011;5883;48.818;9.114;2022-07-29T00:52:00;4.50;;;3.10;;
11653;SDS011;5883;48.818;9.114;2022-07-29T00:54:26;5.68;;;3.28;;
11653;SDS011;5883;48.818;9.114;2022-07-29T00:56:56;3.67;;;2.97;;
11653;SDS011;5883;48.818;9.114;2022-07-29T00:59:22;3.20;;;2.80;;
11653;SDS011;5883;48.818;9.114;2022-07-29T01:01:49;5.85;;;2.97;;
11653;SDS011;5883;48.818;9.114;2022-07-29T01:04:16;3.00;;;2.70;;
11653;SDS011;5883;48.818;9.114;2022-07-29T01:06:42;3.38;;;3.08;;
11653;SDS011;5883;48.818;9.114;2022-07-29T01:09:09;5.45;;;2.65;;
11653;SDS011;5883;48.818;9.114;2022-07-29T01:11:36;3.28;;;2.97;;
11653;SDS011;5883;48.818;9.114;2022-07-29T01:14:04;3.78;;;2.50;;
11653;SDS011;5883;48.818;9.114;2022-07-29T01:16:32;3.42;;;3.10;;
11653;SDS011;5883;48.818;9.114;2022-07-29T01:19:03;5.38;;;2.85;;
11653;SDS011;5883;48.818;9.114;2022-07-29T01:21:44;3.40;;;2.92;;
11653;SDS011;5883;48.818;9.114;2022-07-29T01:24:39;3.10;;;2.80;;
11653;SDS011;5883;48.818;9.114;2022-07-29T01:27:16;3.45;;;2.85;;
11653;SDS011;5883;48.818;9.114;2022-07-29T01:29:49;3.38;;;2.70;;
11653;SDS011;5883;48.818;9.114;2022-07-29T01:32:19;4.20;;;2.63;;
11653;SDS011;5883;48.818;9.114;2022-07-29T01:34:47;3.00;;;2.65;;
11653;SDS011;5883;48.818;9.114;2022-07-29T01:37:15;2.75;;;2.50;;
11653;SDS011;5883;48.818;9.114;2022-07-29T01:39:44;3.80;;;2.88;;
11653;SDS011;5883;48.818;9.114;2022-07-29T01:42:13;3.00;;;2.70;;
11653;SDS011;5883;48.818;9.114;2022-07-29T01:44:41;2.40;;;2.20;;
11653;SDS011;5883;48.818;9.114;2022-07-29T01:47:14;3.13;;;2.83;;
11653;SDS011;5883;48.818;9.114;2022-07-29T01:49:42;3.42;;;2.63;;
11653;SDS011;5883;48.818;9.114;2022-07-29T01:52:13;3.40;;;2.53;;
11653;SDS011;5883;48.818;9.114;2022-07-29T01:54:43;2.53;;;2.28;;
11653;SDS011;5883;48.818;9.114;2022-07-29T01:57:13;4.35;;;3.03;;
11653;SDS011;5883;48.818;9.114;2022-07-29T01:59:40;2.67;;;2.47;;
11653;SDS011;5883;48.818;9.114;2022-07-29T02:02:08;2.95;;;2.70;;
11653;SDS011;5883;48.818;9.114;2022-07-29T02:04:36;2.58;;;2.33;;
11653;SDS011;5883;48.818;9.114;2022-07-29T02:07:05;2.47;;;2.28;;
11653;SDS011;5883;48.818;9.114;2022-07-29T02:09:32;2.80;;;2.47;;
11653;SDS011;5883;48.818;9.114;2022-07-29T02:11:59;2.28;;;2.08;;
11653;SDS011;5883;48.818;9.114;2022-07-29T02:14:28;2.70;;;2.10;;
11653;SDS011;5883;48.818;9.114;2022-07-29T02:16:55;2.47;;;2.28;;
11653;SDS011;5883;48.818;9.114;2022-07-29T02:19:23;5.22;;;2.20;;
11653;SDS011;5883;48.818;9.114;2022-07-29T02:21:54;2.75;;;2.40;;
11653;SDS011;5883;48.818;9.114;2022-07-29T02:24:21;3.08;;;2.25;;
11653;SDS011;5883;48.818;9.114;2022-07-29T02:26:48;2.90;;;2.40;;
11653;SDS011;5883;48.818;9.114;2022-07-29T02:29:16;2.85;;;2.28;;
11653;SDS011;5883;48.818;9.114;2022-07-29T02:31:43;2.63;;;2.35;;
11653;SDS011;5883;48.818;9.114;2022-07-29T02:34:12;2.80;;;2.30;;
11653;SDS011;5883;48.818;9.114;2022-07-29T02:36:39;2.45;;;2.20;;
11653;SDS011;5883;48.818;9.114;2022-07-29T02:39:07;3.13;;;2.83;;
11653;SDS011;5883;48.818;9.114;2022-07-29T02:41:35;4.97;;;2.88;;
11653;SDS011;5883;48.818;9.114;2022-07-29T02:44:04;3.17;;;2.55;;
11653;SDS011;5883;48.818;9.114;2022-07-29T02:46:32;4.80;;;2.78;;
11653;SDS011;5883;48.818;9.114;2022-07-29T02:49:02;2.58;;;2.38;;
11653;SDS011;5883;48.818;9.114;2022-07-29T02:51:33;2.95;;;2.53;;
11653;SDS011;5883;48.818;9.114;2022-07-29T02:54:00;3.33;;;2.90;;
11653;SDS011;5883;48.818;9.114;2022-07-29T02:56:29;3.25;;;2.70;;
11653;SDS011;5883;48.818;9.114;2022-07-29T02:59:02;2.53;;;2.33;;
11653;SDS011;5883;48.818;9.114;2022-07-29T03:01:30;2.60;;;2.40;;
11653;SDS011;5883;48.818;9.114;2022-07-29T03:03:57;4.55;;;2.50;;
11653;SDS011;5883;48.818;9.114;2022-07-29T03:06:26;3.05;;;2.58;;
11653;SDS011;5883;48.818;9.114;2022-07-29T03:08:54;3.50;;;2.60;;
11653;SDS011;5883;48.818;9.114;2022-07-29T03:11:21;3.67;;;2.65;;
11653;SDS011;5883;48.818;9.114;2022-07-29T03:13:49;3.03;;;2.53;;
11653;SDS011;5883;48.818;9.114;2022-07-29T03:16:16;3.40;;;2.60;;
11653;SDS011;5883;48.818;9.114;2022-07-29T03:18:44;3.20;;;2.58;;
11653;SDS011;5883;48.818;9.114;2022-07-29T03:21:11;2.90;;;2.35;;
11653;SDS011;5883;48.818;9.114;2022-07-29T03:23:38;4.45;;;2.35;;
11653;SDS011;5883;48.818;9.114;2022-07-29T03:26:09;3.05;;;2.30;;
11653;SDS011;5883;48.818;9.114;2022-07-29T03:28:36;3.60;;;2.25;;
11653;SDS011;5883;48.818;9.114;2022-07-29T03:31:04;2.90;;;2.40;;
11653;SDS011;5883;48.818;9.114;2022-07-29T03:33:30;3.05;;;2.25;;
11653;SDS011;5883;48.818;9.114;2022-07-29T03:35:57;2.13;;;1.92;;
11653;SDS011;5883;48.818;9.114;2022-07-29T03:38:23;2.40;;;2.13;;
11653;SDS011;5883;48.818;9.114;2022-07-29T03:40:51;2.50;;;2.30;;
11653;SDS011;5883;48.818;9.114;2022-07-29T03:43:19;2.92;;;2.55;;
11653;SDS011;5883;48.818;9.114;2022-07-29T03:45:47;4.38;;;2.80;;
11653;SDS011;5883;48.818;9.114;2022-07-29T03:48:16;4.05;;;2.65;;
11653;SDS011;5883;48.818;9.114;2022-07-29T03:50:44;2.30;;;2.10;;
11653;SDS011;5883;48.818;9.114;2022-07-29T03:53:10;4.63;;;2.25;;
11653;SDS011;5883;48.818;9.114;2022-07-29T03:55:37;3.60;;;2.72;;
11653;SDS011;5883;48.818;9.114;2022-07-29T03:58:06;3.72;;;2.38;;
11653;SDS011;5883;48.818;9.114;2022-07-29T04:00:33;2.92;;;2.60;;
11653;SDS011;5883;48.818;9.114;2022-07-29T04:03:00;2.38;;;2.17;;
11653;SDS011;5883;48.818;9.114;2022-07-29T04:05:29;3.88;;;2.38;;
11653;SDS011;5883;48.818;9.114;2022-07-29T04:07:55;3.63;;;2.50;;
11653;SDS011;5883;48.818;9.114;2022-07-29T04:10:22;3.10;;;2.67;;
11653;SDS011;5883;48.818;9.114;2022-07-29T04:12:49;2.25;;;2.03;;
11653;SDS011;5883;48.818;9.114;2022-07-29T04:15:15;2.92;;;2.58;;
11653;SDS011;5883;48.818;9.114;2022-07-29T04:17:42;6.55;;;2.70;;
11653;SDS011;5883;48.818;9.114;2022-07-29T04:20:09;2.50;;;2.28;;
11653;SDS011;5883;48.818;9.114;2022-07-29T04:22:39;3.85;;;2.47;;
11653;SDS011;5883;48.818;9.114;2022-07-29T04:25:06;2.67;;;2.45;;
11653;SDS011;5883;48.818;9.114;2022-07-29T04:27:33;3.75;;;2.50;;
11653;SDS011;5883;48.818;9.114;2022-07-29T04:29:59;2.90;;;2.35;;
11653;SDS011;5883;48.818;9.114;2022-07-29T04:32:26;2.58;;;2.33;;
11653;SDS011;5883;48.818;9.114;2022-07-29T04:34:52;17.83;;;2.85;;
11653;SDS011;5883;48.818;9.114;2022-07-29T04:37:19;3.17;;;2.63;;
11653;SDS011;5883;48.818;9.114;2022-07-29T04:39:46;3.20;;;2.47;;
11653;SDS011;5883;48.818;9.114;2022-07-29T04:42:13;2.70;;;2.50;;
11653;SDS011;5883;48.818;9.114;2022-07-29T04:44:39;2.70;;;2.47;;
11653;SDS011;5883;48.818;9.114;2022-07-29T04:47:07;2.55;;;2.35;;
11653;SDS011;5883;48.818;9.114;2022-07-29T04:49:33;2.42;;;2.10;;
11653;SDS011;5883;48.818;9.114;2022-07-29T04:52:00;5.53;;;2.55;;
11653;SDS011;5883;48.818;9.114;2022-07-29T04:54:26;4.05;;;2.60;;
11653;SDS011;5883;48.818;9.114;2022-07-29T04:56:54;2.50;;;2.30;;
11653;SDS011;5883;48.818;9.114;2022-07-29T04:59:21;3.08;;;2.10;;
11653;SDS011;5883;48.818;9.114;2022-07-29T05:01:47;3.47;;;2.20;;
11653;SDS011;5883;48.818;9.114;2022-07-29T05:04:14;3.08;;;2.55;;
11653;SDS011;5883;48.818;9.114;2022-07-29T05:06:40;3.17;;;2.15;;
11653;SDS011;5883;48.818;9.114;2022-07-29T05:09:07;2.92;;;2.00;;
11653;SDS011;5883;48.818;9.114;2022-07-29T05:11:33;2.92;;;2.05;;
11653;SDS011;5883;48.818;9.114;2022-07-29T05:14:01;3.58;;;2.15;;
11653;SDS011;5883;48.818;9.114;2022-07-29T05:16:28;2.03;;;1.80;;
11653;SDS011;5883;48.818;9.114;2022-07-29T05:18:54;2.35;;;2.00;;
11653;SDS011;5883;48.818;9.114;2022-07-29T05:21:21;3.50;;;1.75;;
11653;SDS011;5883;48.818;9.114;2022-07-29T05:23:47;3.03;;;1.98;;
11653;SDS011;5883;48.818;9.114;2022-07-29T05:26:14;1.95;;;1.80;;
11653;SDS011;5883;48.818;9.114;2022-07-29T05:28:41;4.28;;;1.85;;
11653;SDS011;5883;48.818;9.114;2022-07-29T05:31:09;3.40;;;2.00;;
11653;SDS011;5883;48.818;9.114;2022-07-29T05:33:35;2.10;;;1.90;;
11653;SDS011;5883;48.818;9.114;2022-07-29T05:36:02;3.58;;;1.73;;
11653;SDS011;5883;48.818;9.114;2022-07-29T05:38:30;1.52;;;1.40;;
11653;SDS011;5883;48.818;9.114;2022-07-29T05:40:57;2.47;;;1.80;;
11653;SDS011;5883;48.818;9.114;2022-07-29T05:43:24;3.60;;;1.92;;
11653;SDS011;5883;48.818;9.114;2022-07-29T05:45:50;2.22;;;1.80;;
11653;SDS011;5883;48.818;9.114;2022-07-29T05:48:18;1.80;;;1.70;;
11653;SDS011;5883;48.818;9.114;2022-07-29T05:50:45;3.03;;;1.83;;
11653;SDS011;5883;48.818;9.114;2022-07-29T05:53:12;6.97;;;2.08;;
11653;SDS011;5883;48.818;9.114;2022-07-29T05:55:38;1.98;;;1.70;;
11653;SDS011;5883;48.818;9.114;2022-07-29T05:58:05;3.03;;;1.60;;
11653;SDS011;5883;48.818;9.114;2022-07-29T06:00:32;1.60;;;1.50;;
11653;SDS011;5883;48.818;9.114;2022-07-29T06:02:59;5.18;;;1.98;;
11653;SDS011;5883;48.818;9.114;2022-07-29T06:05:27;2.83;;;2.00;;
11653;SDS011;5883;48.818;9.114;2022-07-29T06:07:54;4.07;;;1.33;;
11653;SDS011;5883;48.818;9.114;2022-07-29T06:10:21;2.00;;;1.60;;
11653;SDS011;5883;48.818;9.114;2022-07-29T06:12:47;1.48;;;1.20;;
11653;SDS011;5883;48.818;9.114;2022-07-29T06:15:14;1.58;;;1.40;;
11653;SDS011;5883;48.818;9.114;2022-07-29T06:17:41;2.08;;;1.40;;
11653;SDS011;5883;48.818;9.114;2022-07-29T06:20:08;6.82;;;1.73;;
11653;SDS011;5883;48.818;9.114;2022-07-29T06:22:37;1.63;;;1.35;;
11653;SDS011;5883;48.818;9.114;2022-07-29T06:25:03;2.20;;;1.50;;
11653;SDS011;5883;48.818;9.114;2022-07-29T06:27:30;4.35;;;1.45;;
11653;SDS011;5883;48.818;9.114;2022-07-29T06:29:56;4.60;;;2.15;;
11653;SDS011;5883;48.818;9.114;2022-07-29T06:32:23;4.90;;;1.60;;
11653;SDS011;5883;48.818;9.114;2022-07-29T06:34:50;3.95;;;1.83;;
11653;SDS011;5883;48.818;9.114;2022-07-29T06:37:17;2.28;;;1.50;;
11653;SDS011;5883;48.818;9.114;2022-07-29T06:39:45;2.60;;;1.80;;
11653;SDS011;5883;48.818;9.114;2022-07-29T06:42:11;3.42;;;1.67;;
11653;SDS011;5883;48.818;9.114;2022-07-29T06:44:38;2.92;;;1.55;;
11653;SDS011;5883;48.818;9.114;2022-07-29T06:47:04;6.20;;;2.22;;
11653;SDS011;5883;48.818;9.114;2022-07-29T06:49:31;2.30;;;1.90;;
11653;SDS011;5883;48.818;9.114;2022-07-29T06:51:57;3.85;;;1.70;;
11653;SDS011;5883;48.818;9.114;2022-07-29T06:54:24;3.00;;;1.73;;
11653;SDS011;5883;48.818;9.114;2022-07-29T06:56:52;4.70;;;1.42;;
11653;SDS011;5883;48.818;9.114;2022-07-29T06:59:18;2.45;;;1.90;;
11653;SDS011;5883;48.818;9.114;2022-07-29T07:01:45;2.47;;;1.70;;
11653;SDS011;5883;48.818;9.114;2022-07-29T07:04:12;5.65;;;1.80;;
11653;SDS011;5883;48.818;9.114;2022-07-29T07:06:38;2.70;;;1.70;;
11653;SDS011;5883;48.818;9.114;2022-07-29T07:09:05;3.88;;;1.60;;
11653;SDS011;5883;48.818;9.114;2022-07-29T07:11:32;4.57;;;2.05;;
11653;SDS011;5883;48.818;9.114;2022-07-29T07:14:00;2.20;;;1.80;;
11653;SDS011;5883;48.818;9.114;2022-07-29T07:16:26;3.50;;;1.77;;
11653;SDS011;5883;48.818;9.114;2022-07-29T07:18:53;2.80;;;2.20;;
11653;SDS011;5883;48.818;9.114;2022-07-29T07:21:20;4.03;;;1.90;;
11653;SDS011;5883;48.818;9.114;2022-07-29T07:23:46;2.90;;;1.85;;
11653;SDS011;5883;48.818;9.114;2022-07-29T07:26:13;4.95;;;2.00;;
11653;SDS011;5883;48.818;9.114;2022-07-29T07:28:39;5.93;;;1.73;;
11653;SDS011;5883;48.818;9.114;2022-07-29T07:31:08;2.58;;;2.00;;
11653;SDS011;5883;48.818;9.114;2022-07-29T07:33:34;6.10;;;2.05;;
11653;SDS011;5883;48.818;9.114;2022-07-29T07:36:01;4.30;;;1.80;;
11653;SDS011;5883;48.818;9.114;2022-07-29T07:38:30;3.35;;;1.77;;
11653;SDS011;5883;48.818;9.114;2022-07-29T07:40:57;5.68;;;2.15;;
11653;SDS011;5883;48.818;9.114;2022-07-29T07:43:23;2.97;;;1.92;;
11653;SDS011;5883;48.818;9.114;2022-07-29T07:45:50;3.63;;;2.15;;
11653;SDS011;5883;48.818;9.114;2022-07-29T07:48:18;2.50;;;1.65;;
11653;SDS011;5883;48.818;9.114;2022-07-29T07:50:44;7.07;;;2.22;;
11653;SDS011;5883;48.818;9.114;2022-07-29T07:53:11;7.30;;;2.05;;
11653;SDS011;5883;48.818;9.114;2022-07-29T07:55:39;3.58;;;1.75;;
11653;SDS011;5883;48.818;9.114;2022-07-29T07:58:05;2.38;;;2.17;;
11653;SDS011;5883;48.818;9.114;2022-07-29T08:00:32;4.65;;;2.40;;
11653;SDS011;5883;48.818;9.114;2022-07-29T08:02:59;5.43;;;2.35;;
11653;SDS011;5883;48.818;9.114;2022-07-29T08:05:27;7.15;;;2.20;;
11653;SDS011;5883;48.818;9.114;2022-07-29T08:07:53;3.47;;;2.00;;
11653;SDS011;5883;48.818;9.114;2022-07-29T08:10:20;3.17;;;2.15;;
11653;SDS011;5883;48.818;9.114;2022-07-29T08:13:01;7.32;;;2.38;;
11653;SDS011;5883;48.818;9.114;2022-07-29T08:15:28;2.97;;;2.00;;
11653;SDS011;5883;48.818;9.114;2022-07-29T08:17:54;2.72;;;2.08;;
11653;SDS011;5883;48.818;9.114;2022-07-29T08:20:21;3.47;;;2.17;;
11653;SDS011;5883;48.818;9.114;2022-07-29T08:22:49;5.78;;;2.08;;
11653;SDS011;5883;48.818;9.114;2022-07-29T08:25:18;4.53;;;2.47;;
11653;SDS011;5883;48.818;9.114;2022-07-29T08:27:45;6.63;;;2.03;;
11653;SDS011;5883;48.818;9.114;2022-07-29T08:30:12;2.10;;;1.67;;
11653;SDS011;5883;48.818;9.114;2022-07-29T08:32:39;2.85;;;1.80;;
11653;SDS011;5883;48.818;9.114;2022-07-29T08:35:05;2.17;;;1.70;;
11653;SDS011;5883;48.818;9.114;2022-07-29T08:37:32;2.55;;;1.80;;
11653;SDS011;5883;48.818;9.114;2022-07-29T08:40:00;2.83;;;1.83;;
11653;SDS011;5883;48.818;9.114;2022-07-29T08:42:26;8.13;;;1.83;;
11653;SDS011;5883;48.818;9.114;2022-07-29T08:44:54;4.80;;;2.00;;
11653;SDS011;5883;48.818;9.114;2022-07-29T08:47:20;2.20;;;1.80;;
11653;SDS011;5883;48.818;9.114;2022-07-29T08:49:48;6.20;;;2.00;;
11653;SDS011;5883;48.818;9.114;2022-07-29T08:52:15;4.28;;;2.20;;
11653;SDS011;5883;48.818;9.114;2022-07-29T08:54:43;3.35;;;2.30;;
11653;SDS011;5883;48.818;9.114;2022-07-29T08:57:11;2.65;;;1.60;;
11653;SDS011;5883;48.818;9.114;2022-07-29T08:59:39;8.57;;;2.08;;
11653;SDS011;5883;48.818;9.114;2022-07-29T09:02:06;6.18;;;2.05;;
11653;SDS011;5883;48.818;9.114;2022-07-29T09:04:38;3.60;;;2.25;;
11653;SDS011;5883;48.818;9.114;2022-07-29T09:07:05;5.38;;;1.88;;
11653;SDS011;5883;48.818;9.114;2022-07-29T09:09:32;3.78;;;2.17;;
11653;SDS011;5883;48.818;9.114;2022-07-29T09:11:59;3.10;;;2.33;;
11653;SDS011;5883;48.818;9.114;2022-07-29T09:14:27;6.43;;;2.13;;
11653;SDS011;5883;48.818;9.114;2022-07-29T09:16:54;2.20;;;2.00;;
11653;SDS011;5883;48.818;9.114;2022-07-29T09:19:25;4.85;;;2.30;;
11653;SDS011;5883;48.818;9.114;2022-07-29T09:21:52;6.75;;;2.35;;
11653;SDS011;5883;48.818;9.114;2022-07-29T09:24:25;3.03;;;2.25;;
11653;SDS011;5883;48.818;9.114;2022-07-29T09:26:52;3.42;;;2.25;;
11653;SDS011;5883;48.818;9.114;2022-07-29T09:29:19;5.50;;;2.30;;
11653;SDS011;5883;48.818;9.114;2022-07-29T09:31:48;5.93;;;2.70;;
11653;SDS011;5883;48.818;9.114;2022-07-29T09:34:15;4.90;;;2.65;;
11653;SDS011;5883;48.818;9.114;2022-07-29T09:36:42;6.05;;;2.53;;
11653;SDS011;5883;48.818;9.114;2022-07-29T09:39:09;8.18;;;2.70;;
11653;SDS011;5883;48.818;9.114;2022-07-29T09:41:46;5.43;;;2.05;;
11653;SDS011;5883;48.818;9.114;2022-07-29T09:44:12;4.32;;;2.40;;
11653;SDS011;5883;48.818;9.114;2022-07-29T09:46:40;5.53;;;2.58;;
11653;SDS011;5883;48.818;9.114;2022-07-29T09:49:08;7.93;;;2.40;;
11653;SDS011;5883;48.818;9.114;2022-07-29T09:51:35;6.35;;;2.67;;
11653;SDS011;5883;48.818;9.114;2022-07-29T09:54:02;8.43;;;2.72;;
11653;SDS011;5883;48.818;9.114;2022-07-29T09:56:39;5.68;;;2.17;;
11653;SDS011;5883;48.818;9.114;2022-07-29T09:59:05;6.95;;;2.50;;
11653;SDS011;5883;48.818;9.114;2022-07-29T10:01:32;3.65;;;2.70;;
11653;SDS011;5883;48.818;9.114;2022-07-29T10:03:59;5.15;;;2.97;;
11653;SDS011;5883;48.818;9.114;2022-07-29T10:06:27;3.63;;;2.30;;
11653;SDS011;5883;48.818;9.114;2022-07-29T10:08:53;3.60;;;2.22;;
11653;SDS011;5883;48.818;9.114;2022-07-29T10:11:20;5.85;;;2.50;;
11653;SDS011;5883;48.818;9.114;2022-07-29T10:13:47;6.03;;;2.50;;
11653;SDS011;5883;48.818;9.114;2022-07-29T10:16:14;3.28;;;2.55;;
11653;SDS011;5883;48.818;9.114;2022-07-29T10:18:42;9.52;;;2.70;;
11653;SDS011;5883;48.818;9.114;2022-07-29T10:21:08;9.80;;;2.65;;
11653;SDS011;5883;48.818;9.114;2022-07-29T10:23:37;4.90;;;2.85;;
11653;SDS011;5883;48.818;9.114;2022-07-29T10:26:03;2.95;;;2.13;;
11653;SDS011;5883;48.818;9.114;2022-07-29T10:28:30;5.28;;;2.50;;
11653;SDS011;5883;48.818;9.114;2022-07-29T10:30:59;5.80;;;2.90;;
11653;SDS011;5883;48.818;9.114;2022-07-29T10:33:37;3.22;;;2.00;;
11653;SDS011;5883;48.818;9.114;2022-07-29T10:36:09;5.15;;;2.78;;
11653;SDS011;5883;48.818;9.114;2022-07-29T10:38:47;5.88;;;2.20;;
11653;SDS011;5883;48.818;9.114;2022-07-29T10:41:21;3.33;;;2.25;;
11653;SDS011;5883;48.818;9.114;2022-07-29T10:43:51;4.28;;;1.92;;
11653;SDS011;5883;48.818;9.114;2022-07-29T10:46:19;3.08;;;2.13;;
11653;SDS011;5883;48.818;9.114;2022-07-29T10:51:33;4.55;;;2.30;;
11653;SDS011;5883;48.818;9.114;2022-07-29T10:54:18;6.65;;;2.40;;
11653;SDS011;5883;48.818;9.114;2022-07-29T10:56:45;3.60;;;2.53;;
11653;SDS011;5883;48.818;9.114;2022-07-29T10:59:24;4.22;;;2.85;;
11653;SDS011;5883;48.818;9.114;2022-07-29T11:01:51;3.65;;;2.55;;
11653;SDS011;5883;48.818;9.114;2022-07-29T11:04:25;6.00;;;2.95;;
11653;SDS011;5883;48.818;9.114;2022-07-29T11:07:12;5.03;;;2.88;;
11653;SDS011;5883;48.818;9.114;2022-07-29T11:09:42;6.10;;;2.60;;
11653;SDS011;5883;48.818;9.114;2022-07-29T11:14:55;4.80;;;2.47;;
11653;SDS011;5883;48.818;9.114;2022-07-29T11:17:22;4.00;;;2.22;;
11653;SDS011;5883;48.818;9.114;2022-07-29T11:19:49;3.55;;;2.40;;
11653;SDS011;5883;48.818;9.114;2022-07-29T11:22:30;5.15;;;2.60;;
11653;SDS011;5883;48.818;9.114;2022-07-29T11:27:54;3.30;;;3.00;;
11653;SDS011;5883;48.818;9.114;2022-07-29T11:30:20;4.03;;;3.10;;
11653;SDS011;5883;48.818;9.114;2022-07-29T11:32:47;4.68;;;3.00;;
11653;SDS011;5883;48.818;9.114;2022-07-29T11:35:14;4.15;;;2.55;;
11653;SDS011;5883;48.818;9.114;2022-07-29T11:37:42;3.92;;;3.53;;
11653;SDS011;5883;48.818;9.114;2022-07-29T11:40:15;6.15;;;2.90;;
11653;SDS011;5883;48.818;9.114;2022-07-29T11:42:47;4.43;;;2.72;;
11653;SDS011;5883;48.818;9.114;2022-07-29T11:45:16;4.45;;;3.10;;
11653;SDS011;5883;48.818;9.114;2022-07-29T11:47:47;3.40;;;2.80;;
11653;SDS011;5883;48.818;9.114;2022-07-29T11:50:14;4.80;;;3.47;;
11653;SDS011;5883;48.818;9.114;2022-07-29T11:52:41;5.97;;;3.40;;
11653;SDS011;5883;48.818;9.114;2022-07-29T11:55:12;6.13;;;2.80;;
11653;SDS011;5883;48.818;9.114;2022-07-29T11:57:49;5.63;;;2.65;;
11653;SDS011;5883;48.818;9.114;2022-07-29T12:00:24;4.30;;;2.80;;
11653;SDS011;5883;48.818;9.114;2022-07-29T12:02:51;5.28;;;2.60;;
11653;SDS011;5883;48.818;9.114;2022-07-29T12:05:17;3.30;;;2.35;;
11653;SDS011;5883;48.818;9.114;2022-07-29T12:07:44;2.83;;;2.47;;
11653;SDS011;5883;48.818;9.114;2022-07-29T12:10:11;4.38;;;2.63;;
11653;SDS011;5883;48.818;9.114;2022-07-29T12:12:37;3.63;;;2.55;;
11653;SDS011;5883;48.818;9.114;2022-07-29T12:15:14;8.85;;;2.85;;
11653;SDS011;5883;48.818;9.114;2022-07-29T12:17:43;4.75;;;2.88;;
11653;SDS011;5883;48.818;9.114;2022-07-29T12:20:10;5.70;;;2.60;;
11653;SDS011;5883;48.818;9.114;2022-07-29T12:22:39;8.95;;;3.92;;
11653;SDS011;5883;48.818;9.114;2022-07-29T12:25:06;3.85;;;2.97;;
11653;SDS011;5883;48.818;9.114;2022-07-29T12:27:34;6.10;;;2.95;;
11653;SDS011;5883;48.818;9.114;2022-07-29T12:30:02;3.03;;;2.55;;
11653;SDS011;5883;48.818;9.114;2022-07-29T12:32:33;4.43;;;2.95;;
11653;SDS011;5883;48.818;9.114;2022-07-29T12:35:01;3.72;;;2.92;;
11653;SDS011;5883;48.818;9.114;2022-07-29T12:37:28;4.38;;;3.05;;
11653;SDS011;5883;48.818;9.114;2022-07-29T12:39:55;5.55;;;3.03;;
11653;SDS011;5883;48.818;9.114;2022-07-29T12:42:21;4.93;;;3.40;;
11653;SDS011;5883;48.818;9.114;2022-07-29T12:44:48;4.22;;;3.00;;
11653;SDS011;5883;48.818;9.114;2022-07-29T12:47:15;5.35;;;3.00;;
11653;SDS011;5883;48.818;9.114;2022-07-29T12:49:43;8.65;;;3.15;;
11653;SDS011;5883;48.818;9.114;2022-07-29T12:52:30;3.63;;;3.08;;
11653;SDS011;5883;48.818;9.114;2022-07-29T12:54:57;4.03;;;3.13;;
11653;SDS011;5883;48.818;9.114;2022-07-29T12:57:23;5.22;;;3.33;;
11653;SDS011;5883;48.818;9.114;2022-07-29T13:00:03;3.47;;;2.72;;
11653;SDS011;5883;48.818;9.114;2022-07-29T13:02:30;4.55;;;3.17;;
11653;SDS011;5883;48.818;9.114;2022-07-29T13:04:57;7.20;;;2.53;;
11653;SDS011;5883;48.818;9.114;2022-07-29T13:07:24;4.75;;;2.58;;
11653;SDS011;5883;48.818;9.114;2022-07-29T13:09:52;4.30;;;2.92;;
11653;SDS011;5883;48.818;9.114;2022-07-29T13:12:18;5.07;;;2.70;;
11653;SDS011;5883;48.818;9.114;2022-07-29T13:14:46;5.13;;;2.90;;
11653;SDS011;5883;48.818;9.114;2022-07-29T13:17:13;3.97;;;2.45;;
11653;SDS011;5883;48.818;9.114;2022-07-29T13:19:41;3.85;;;2.65;;
11653;SDS011;5883;48.818;9.114;2022-07-29T13:22:08;3.95;;;2.55;;
11653;SDS011;5883;48.818;9.114;2022-07-29T13:24:46;7.35;;;2.83;;
11653;SDS011;5883;48.818;9.114;2022-07-29T13:27:14;2.90;;;2.55;;
11653;SDS011;5883;48.818;9.114;2022-07-29T13:29:41;4.65;;;2.38;;
11653;SDS011;5883;48.818;9.114;2022-07-29T13:32:07;4.05;;;2.70;;
11653;SDS011;5883;48.818;9.114;2022-07-29T13:34:34;4.10;;;3.05;;
11653;SDS011;5883;48.818;9.114;2022-07-29T13:37:01;4.63;;;2.60;;
11653;SDS011;5883;48.818;9.114;2022-07-29T13:39:27;3.78;;;2.65;;
11653;SDS011;5883;48.818;9.114;2022-07-29T13:41:54;3.30;;;2.70;;
11653;SDS011;5883;48.818;9.114;2022-07-29T13:44:22;3.20;;;2.90;;
11653;SDS011;5883;48.818;9.114;2022-07-29T13:46:48;2.92;;;2.63;;
11653;SDS011;5883;48.818;9.114;2022-07-29T13:49:15;3.13;;;2.45;;
11653;SDS011;5883;48.818;9.114;2022-07-29T13:51:42;7.20;;;2.88;;
11653;SDS011;5883;48.818;9.114;2022-07-29T13:54:08;4.07;;;2.67;;
11653;SDS011;5883;48.818;9.114;2022-07-29T13:56:35;4.63;;;2.40;;
11653;SDS011;5883;48.818;9.114;2022-07-29T13:59:01;7.35;;;3.00;;
11653;SDS011;5883;48.818;9.114;2022-07-29T14:01:29;3.38;;;2.53;;
11653;SDS011;5883;48.818;9.114;2022-07-29T14:03:56;11.77;;;2.72;;
11653;SDS011;5883;48.818;9.114;2022-07-29T14:06:22;8.80;;;3.00;;
11653;SDS011;5883;48.818;9.114;2022-07-29T14:08:49;13.70;;;3.58;;
11653;SDS011;5883;48.818;9.114;2022-07-29T14:11:15;7.53;;;2.55;;
11653;SDS011;5883;48.818;9.114;2022-07-29T14:13:42;5.47;;;2.90;;
11653;SDS011;5883;48.818;9.114;2022-07-29T14:16:08;5.80;;;2.75;;
11653;SDS011;5883;48.818;9.114;2022-07-29T14:18:36;8.10;;;2.65;;
11653;SDS011;5883;48.818;9.114;2022-07-29T14:21:03;5.50;;;2.55;;
11653;SDS011;5883;48.818;9.114;2022-07-29T14:23:29;9.55;;;2.63;;
11653;SDS011;5883;48.818;9.114;2022-07-29T14:25:56;6.13;;;2.13;;
11653;SDS011;5883;48.818;9.114;2022-07-29T14:28:22;3.60;;;2.22;;
11653;SDS011;5883;48.818;9.114;2022-07-29T14:30:49;3.65;;;1.85;;
11653;SDS011;5883;48.818;9.114;2022-07-29T14:33:15;2.60;;;2.00;;
11653;SDS011;5883;48.818;9.114;2022-07-29T14:35:43;4.05;;;2.00;;
11653;SDS011;5883;48.818;9.114;2022-07-29T14:38:10;3.80;;;2.05;;
11653;SDS011;5883;48.818;9.114;2022-07-29T14:40:36;2.38;;;1.85;;
11653;SDS011;5883;48.818;9.114;2022-07-29T14:43:03;7.75;;;2.38;;
11653;SDS011;5883;48.818;9.114;2022-07-29T14:45:30;4.40;;;2.28;;
11653;SDS011;5883;48.818;9.114;2022-07-29T14:47:56;2.55;;;2.05;;
11653;SDS011;5883;48.818;9.114;2022-07-29T14:50:23;6.90;;;1.95;;
11653;SDS011;5883;48.818;9.114;2022-07-29T14:52:52;1.67;;;1.52;;
11653;SDS011;5883;48.818;9.114;2022-07-29T14:55:19;2.25;;;1.60;;
11653;SDS011;5883;48.818;9.114;2022-07-29T14:57:46;3.45;;;1.90;;
11653;SDS011;5883;48.818;9.114;2022-07-29T15:00:12;2.95;;;1.90;;
11653;SDS011;5883;48.818;9.114;2022-07-29T15:02:39;2.58;;;1.60;;
11653;SDS011;5883;48.818;9.114;2022-07-29T15:05:05;4.50;;;2.13;;
11653;SDS011;5883;48.818;9.114;2022-07-29T15:07:32;2.78;;;1.90;;
11653;SDS011;5883;48.818;9.114;2022-07-29T15:10:00;4.45;;;1.80;;
11653;SDS011;5883;48.818;9.114;2022-07-29T15:12:27;9.50;;;1.90;;